Time;durP1;ratioP1;P1;durP2;ratioP2;P2;SDS_P1;SDS_P2;PMS_P1;PMS_P2;Temp;Humidity;BMP_temperature;BMP_pressure;BME280_temperature;BME280_humidity;BME280_pressure;Samples;Min_cycle;Max_cycle;Signal;HPM_P1;HPM_P2
2022/10/24 00:01:22;;;;;;;26.13;16.63;;;;;;;12.34;99.69;95403.19;5055531;28;20248;-77
2022/10/24 00:03:49;;;;;;;27.03;16.60;;;;;;;12.41;99.86;95413.56;5041235;28;20199;-77
2022/10/24 00:06:18;;;;;;;30.70;17.97;;;;;;;12.40;99.84;95406.75;5038032;28;20707;-78
2022/10/24 00:08:45;;;;;;;34.30;17.77;;;;;;;12.40;99.59;95401.53;5036020;28;20198;-78
2022/10/24 00:11:15;;;;;;;27.47;17.77;;;;;;;12.37;99.69;95394.94;5038328;28;20187;-78
2022/10/24 00:13:42;;;;;;;30.33;18.07;;;;;;;12.36;99.84;95405.56;5049549;28;20203;-79
2022/10/24 00:16:10;;;;;;;31.60;17.27;;;;;;;12.32;100.00;95394.75;5052590;28;20197;-78
2022/10/24 00:18:38;;;;;;;30.27;17.33;;;;;;;12.20;100.00;95385.22;5047791;28;20190;-78
2022/10/24 00:21:06;;;;;;;25.57;16.70;;;;;;;12.20;100.00;95382.63;5054950;28;20193;-78
2022/10/24 00:23:33;;;;;;;27.03;16.60;;;;;;;12.23;100.00;95384.81;5053688;28;20204;-78
2022/10/24 00:26:02;;;;;;;29.23;17.13;;;;;;;12.24;100.00;95397.63;5051206;28;20216;-77
2022/10/24 00:28:30;;;;;;;28.47;17.30;;;;;;;12.14;100.00;95388.66;5053833;28;20205;-77
2022/10/24 00:30:57;;;;;;;28.00;17.17;;;;;;;12.09;100.00;95381.47;5054930;28;20198;-78
2022/10/24 00:33:25;;;;;;;29.80;16.77;;;;;;;12.07;100.00;95385.28;5043901;28;20202;-77
2022/10/24 00:35:53;;;;;;;32.23;16.13;;;;;;;12.02;100.00;95380.72;5048452;28;20198;-77
2022/10/24 00:38:20;;;;;;;23.93;15.07;;;;;;;12.02;100.00;95385.13;5042979;28;20201;-77
2022/10/24 00:40:47;;;;;;;31.53;14.67;;;;;;;11.95;100.00;95385.16;5049174;28;20656;-77
2022/10/24 00:43:16;;;;;;;24.63;14.13;;;;;;;11.93;100.00;95385.38;5051275;28;20233;-77
2022/10/24 00:45:47;;;;;;;27.43;15.90;;;;;;;11.92;100.00;95377.75;5044063;28;20278;-77
2022/10/24 00:48:19;;;;;;;24.00;14.93;;;;;;;11.88;100.00;95381.78;5045009;28;20722;-77
2022/10/24 00:50:49;;;;;;;29.20;16.43;;;;;;;11.88;100.00;95384.41;5054694;28;20251;-77
2022/10/24 00:53:19;;;;;;;33.03;17.43;;;;;;;11.81;100.00;95389.63;5041293;28;20198;-77
2022/10/24 00:55:49;;;;;;;28.60;16.30;;;;;;;11.76;100.00;95380.84;5046010;28;20197;-78
2022/10/24 00:58:18;;;;;;;33.17;17.57;;;;;;;11.71;100.00;95383.25;5034968;28;20199;-77
2022/10/24 01:00:44;;;;;;;33.43;18.13;;;;;;;11.71;100.00;95391.88;5045384;28;20198;-78
2022/10/24 01:03:12;;;;;;;34.47;17.77;;;;;;;11.66;100.00;95394.25;5038542;28;20197;-78
2022/10/24 01:05:56;;;;;;;31.43;17.47;;;;;;;11.71;100.00;95393.69;5040069;28;20215;-78
2022/10/24 01:08:35;;;;;;;28.87;16.37;;;;;;;11.69;100.00;95382.63;5035746;28;20202;-79
2022/10/24 01:11:12;;;;;;;37.13;17.30;;;;;;;11.68;100.00;95389.66;5051979;28;20277;-78
2022/10/24 01:13:50;;;;;;;28.43;15.73;;;;;;;11.67;100.00;95392.44;5050312;28;20259;-77
2022/10/24 01:16:27;;;;;;;30.27;15.43;;;;;;;11.59;100.00;95392.69;5049699;28;20649;-77
2022/10/24 01:19:00;;;;;;;27.50;15.47;;;;;;;11.55;100.00;95388.88;5049868;28;20190;-77
2022/10/24 01:21:32;;;;;;;27.97;14.83;;;;;;;11.53;100.00;95390.91;5040405;28;20629;-78
2022/10/24 01:24:38;;;;;;;29.77;14.33;;;;;;;11.43;100.00;95385.34;5034144;28;20653;-78
2022/10/24 01:27:40;;;;;;;27.57;13.93;;;;;;;11.44;100.00;95392.94;4996637;28;20198;-76
2022/10/24 01:30:09;;;;;;;22.97;13.63;;;;;;;11.43;100.00;95390.53;5046748;28;20196;-77
2022/10/24 01:32:42;;;;;;;19.50;11.87;;;;;;;11.44;100.00;95392.13;5041931;28;20205;-77
2022/10/24 01:35:22;;;;;;;21.60;13.37;;;;;;;11.39;100.00;95390.94;5042672;28;20245;-79
2022/10/24 01:37:54;;;;;;;25.20;13.27;;;;;;;11.44;100.00;95395.53;5045282;28;20207;-78
2022/10/24 01:40:26;;;;;;;23.90;13.27;;;;;;;11.40;100.00;95391.72;5042603;28;20194;-78
2022/10/24 01:42:58;;;;;;;20.30;12.07;;;;;;;11.29;100.00;95387.97;5045681;28;20245;-78
2022/10/24 01:45:31;;;;;;;26.17;12.40;;;;;;;11.29;100.00;95392.34;5047726;28;20696;-78
2022/10/24 01:48:02;;;;;;;21.80;13.00;;;;;;;11.16;100.00;95380.19;5043412;28;20187;-78
2022/10/24 01:50:30;;;;;;;18.33;11.43;;;;;;;11.22;100.00;95384.59;5039449;28;20187;-77
2022/10/24 01:52:58;;;;;;;16.17;10.03;;;;;;;11.19;100.00;95382.41;5034396;28;20206;-77
2022/10/24 01:55:25;;;;;;;18.90;10.70;;;;;;;11.20;100.00;95385.78;5039121;28;20199;-77
2022/10/24 01:57:52;;;;;;;19.50;12.20;;;;;;;11.18;100.00;95387.78;5045282;28;20202;-77
2022/10/24 02:00:21;;;;;;;18.43;11.30;;;;;;;11.20;100.00;95378.78;5043017;28;20672;-77
2022/10/24 02:02:54;;;;;;;18.27;11.13;;;;;;;11.33;100.00;95388.38;5053518;28;20201;-77
2022/10/24 02:05:25;;;;;;;18.77;11.60;;;;;;;11.30;100.00;95383.56;5047926;28;20302;-76
2022/10/24 02:07:57;;;;;;;22.83;11.73;;;;;;;11.21;100.00;95395.19;5048279;28;20190;-77
2022/10/24 02:10:28;;;;;;;18.33;11.07;;;;;;;11.08;100.00;95362.19;5042561;28;20197;-77
2022/10/24 02:13:03;;;;;;;17.37;11.60;;;;;;;11.15;100.00;95383.78;5049928;28;20256;-77
2022/10/24 02:15:33;;;;;;;20.70;12.03;;;;;;;11.15;100.00;95385.59;5048094;28;20194;-77
2022/10/24 02:18:02;;;;;;;18.93;11.87;;;;;;;11.15;100.00;95383.78;5036962;28;20198;-77
2022/10/24 02:20:35;;;;;;;23.53;12.40;;;;;;;11.14;100.00;95390.00;5038686;28;20191;-77
2022/10/24 02:23:10;;;;;;;23.20;12.37;;;;;;;11.12;100.00;95391.19;5036184;28;20190;-78
2022/10/24 02:25:42;;;;;;;17.93;12.00;;;;;;;11.19;100.00;95385.00;5040387;28;20229;-78
2022/10/24 02:28:13;;;;;;;22.90;13.43;;;;;;;11.20;100.00;95390.97;5043796;28;20198;-77
2022/10/24 02:30:45;;;;;;;25.77;13.83;;;;;;;11.14;100.00;95384.78;5046657;28;20658;-77
2022/10/24 02:33:15;;;;;;;21.87;15.10;;;;;;;11.08;100.00;95393.41;5036645;28;20190;-78
2022/10/24 02:35:43;;;;;;;22.80;13.73;;;;;;;11.06;100.00;95390.19;5039321;28;20194;-77
2022/10/24 02:38:15;;;;;;;22.73;14.77;;;;;;;11.05;100.00;95390.41;5041215;28;20191;-78
2022/10/24 02:40:46;;;;;;;28.67;14.67;;;;;;;11.05;100.00;95391.22;5043582;28;20190;-78
2022/10/24 02:43:14;;;;;;;22.97;14.37;;;;;;;10.98;100.00;95394.81;5044167;28;20245;-78
2022/10/24 02:45:40;;;;;;;26.20;15.03;;;;;;;10.97;100.00;95386.22;5040426;28;20213;-77
2022/10/24 02:48:11;;;;;;;23.67;14.33;;;;;;;11.00;100.00;95382.41;5040736;28;20581;-79
2022/10/24 02:50:41;;;;;;;22.43;14.27;;;;;;;10.99;100.00;95388.63;5048147;28;20597;-78
2022/10/24 02:53:10;;;;;;;19.83;13.70;;;;;;;10.98;100.00;95394.81;5046383;28;20218;-78
2022/10/24 02:55:37;;;;;;;21.50;13.97;;;;;;;10.99;100.00;95388.63;5034128;28;20282;-77
2022/10/24 02:58:04;;;;;;;22.07;13.47;;;;;;;10.98;100.00;95384.41;5041858;28;20193;-78
2022/10/24 03:00:31;;;;;;;22.27;14.00;;;;;;;11.00;100.00;95382.41;5041346;28;20626;-78
2022/10/24 03:02:58;;;;;;;20.17;13.50;;;;;;;10.95;100.00;95377.81;5045100;28;20629;-78
2022/10/24 03:05:25;;;;;;;19.37;13.33;;;;;;;11.03;100.00;95382.00;5046153;28;20221;-78
2022/10/24 03:07:53;;;;;;;21.07;13.37;;;;;;;10.94;100.00;95386.63;5052526;28;20201;-77
2022/10/24 03:10:20;;;;;;;21.37;12.93;;;;;;;10.95;100.00;95370.03;5036114;28;20191;-77
2022/10/24 03:12:46;;;;;;;20.63;13.10;;;;;;;10.88;100.00;95371.03;5043761;28;20259;-78
2022/10/24 03:15:13;;;;;;;18.70;12.70;;;;;;;10.93;100.00;95382.44;5042698;28;20573;-77
2022/10/24 03:17:40;;;;;;;21.00;13.60;;;;;;;10.92;100.00;95377.41;5037854;28;20194;-77
2022/10/24 03:20:08;;;;;;;26.67;13.87;;;;;;;10.88;100.00;95379.63;5051454;28;20194;-78
2022/10/24 03:22:35;;;;;;;22.63;14.30;;;;;;;10.88;100.00;95374.41;5032463;28;20203;-78
2022/10/24 03:25:05;;;;;;;18.53;13.50;;;;;;;10.79;100.00;95379.03;5051329;28;20199;-78
2022/10/24 03:27:32;;;;;;;23.53;15.30;;;;;;;10.77;100.00;95367.22;5045847;28;20272;-78
2022/10/24 03:29:59;;;;;;;27.70;15.67;;;;;;;10.87;100.00;95367.63;5032385;28;20211;-78
2022/10/24 03:32:26;;;;;;;22.93;15.77;;;;;;;10.86;100.00;95373.81;5031662;28;20203;-77
2022/10/24 03:34:53;;;;;;;25.10;16.70;;;;;;;10.87;100.00;95377.22;5047159;28;20198;-76
2022/10/24 03:37:20;;;;;;;26.47;15.27;;;;;;;10.80;100.00;95372.84;5043260;28;20187;-78
2022/10/24 03:39:47;;;;;;;32.87;17.20;;;;;;;10.83;100.00;95372.44;5042561;28;20660;-77
2022/10/24 03:42:15;;;;;;;30.57;18.17;;;;;;;10.85;100.00;95371.44;5039731;28;20231;-77
2022/10/24 03:44:42;;;;;;;28.20;18.70;;;;;;;10.82;100.00;95378.63;5046002;28;20250;-77
2022/10/24 03:47:08;;;;;;;29.20;18.30;;;;;;;10.71;100.00;95375.81;5036553;28;20211;-77
2022/10/24 03:49:35;;;;;;;33.77;18.07;;;;;;;10.69;100.00;95376.03;5037002;28;20567;-78
2022/10/24 03:52:02;;;;;;;27.77;18.80;;;;;;;10.65;100.00;95374.03;5039408;28;20202;-77
2022/10/24 03:54:29;;;;;;;33.47;19.47;;;;;;;10.56;100.00;95370.81;5039951;28;20232;-78
2022/10/24 03:56:55;;;;;;;33.10;19.03;;;;;;;10.56;100.00;95367.44;5035735;28;20203;-77
2022/10/24 03:59:24;;;;;;;29.57;18.20;;;;;;;10.50;100.00;95371.66;5034055;28;20190;-78
2022/10/24 04:01:50;;;;;;;34.30;19.17;;;;;;;10.59;100.00;95372.25;5034097;28;20265;-78
2022/10/24 04:04:17;;;;;;;36.63;19.67;;;;;;;10.53;100.00;95368.66;5041882;28;20194;-77
2022/10/24 04:06:44;;;;;;;33.73;18.17;;;;;;;10.55;100.00;95360.66;5037304;28;20260;-77
2022/10/24 04:09:11;;;;;;;34.50;18.20;;;;;;;10.52;100.00;95372.25;5046285;28;20197;-77
2022/10/24 04:11:38;;;;;;;33.23;18.33;;;;;;;10.55;100.00;95366.66;5048487;28;20194;-78
2022/10/24 04:14:05;;;;;;;32.47;18.47;;;;;;;10.58;100.00;95362.84;5038749;28;20265;-78
2022/10/24 04:16:33;;;;;;;33.53;19.00;;;;;;;10.50;100.00;95358.66;5031791;28;20229;-78
2022/10/24 04:19:00;;;;;;;36.33;19.47;;;;;;;10.53;100.00;95355.66;5031536;28;20194;-78
2022/10/24 04:21:27;;;;;;;42.03;28.13;;;;;;;10.44;100.00;95359.44;5033803;28;20199;-78
2022/10/24 04:23:54;;;;;;;59.67;39.90;;;;;;;10.44;100.00;95362.03;5043479;28;20624;-78
2022/10/24 04:26:21;;;;;;;62.17;36.67;;;;;;;10.42;100.00;95352.84;5039044;28;20210;-78
2022/10/24 04:28:48;;;;;;;56.13;35.83;;;;;;;10.48;100.00;95368.44;5048271;28;20194;-79
2022/10/24 04:31:15;;;;;;;47.10;32.17;;;;;;;10.56;100.00;95367.44;5045048;28;20253;-79
2022/10/24 04:33:43;;;;;;;50.33;31.30;;;;;;;10.52;100.00;95363.63;5034165;28;20190;-78
2022/10/24 04:36:10;;;;;;;51.03;30.40;;;;;;;10.42;100.00;95365.84;5033906;28;20198;-78
2022/10/24 04:38:36;;;;;;;45.73;28.07;;;;;;;10.53;100.00;95367.84;5038382;28;20205;-78
2022/10/24 04:41:03;;;;;;;47.03;26.33;;;;;;;10.45;100.00;95370.63;5052862;28;20198;-77
2022/10/24 04:43:30;;;;;;;53.40;27.77;;;;;;;10.53;100.00;95379.03;5045008;28;20233;-78
2022/10/24 04:45:57;;;;;;;46.20;27.27;;;;;;;10.47;100.00;95385.03;5051976;28;20589;-76
2022/10/24 04:48:24;;;;;;;33.00;21.73;;;;;;;10.34;100.00;95384.19;5048467;28;20194;-78
2022/10/24 04:50:52;;;;;;;36.23;20.47;;;;;;;10.37;100.00;95382.00;5046371;28;20198;-77
2022/10/24 04:53:18;;;;;;;47.63;21.97;;;;;;;10.24;100.00;95379.41;5054695;28;20195;-77
2022/10/24 04:55:45;;;;;;;56.53;23.53;;;;;;;10.32;100.00;95384.41;5043625;28;20612;-77
2022/10/24 04:58:12;;;;;;;39.90;23.33;;;;;;;10.24;100.00;95369.81;5035524;28;20191;-78
2022/10/24 05:00:41;;;;;;;43.73;24.70;;;;;;;10.30;100.00;95364.84;5036795;28;20202;-78
2022/10/24 05:03:08;;;;;;;45.90;23.67;;;;;;;10.37;100.00;95384.63;5037128;28;20191;-78
2022/10/24 05:05:35;;;;;;;43.27;22.20;;;;;;;10.35;100.00;95386.63;5037132;28;20194;-78
2022/10/24 05:08:03;;;;;;;41.07;22.63;;;;;;;10.37;100.00;95382.00;5053221;28;20197;-79
2022/10/24 05:10:30;;;;;;;46.80;23.77;;;;;;;10.39;100.00;95387.03;5040502;28;20244;-78
2022/10/24 05:12:57;;;;;;;48.13;24.40;;;;;;;10.39;100.00;95394.81;5045652;28;20206;-78
2022/10/24 05:15:24;;;;;;;51.07;24.77;;;;;;;10.38;100.00;95390.63;5039547;28;20194;-77
2022/10/24 05:17:51;;;;;;;53.90;28.50;;;;;;;10.39;100.00;95390.41;5035467;28;20190;-78
2022/10/24 05:20:17;;;;;;;59.13;30.37;;;;;;;10.34;100.00;95389.41;5051429;28;20191;-77
2022/10/24 05:22:44;;;;;;;55.47;29.93;;;;;;;10.39;100.00;95387.81;5040256;28;20202;-77
2022/10/24 05:25:12;;;;;;;69.40;30.53;;;;;;;10.44;100.00;95380.25;5042284;28;20198;-78
2022/10/24 05:27:39;;;;;;;55.47;31.00;;;;;;;10.49;100.00;95379.63;5034150;28;20633;-77
2022/10/24 05:30:07;;;;;;;67.07;33.13;;;;;;;10.39;100.00;95371.44;5033744;28;20964;-78
2022/10/24 05:32:34;;;;;;;79.90;34.40;;;;;;;10.43;100.00;95389.03;5040794;28;20268;-78
2022/10/24 05:35:01;;;;;;;70.30;35.37;;;;;;;10.40;100.00;95378.22;5054030;28;20194;-77
2022/10/24 05:37:27;;;;;;;86.07;40.87;;;;;;;10.44;100.00;95384.63;5053588;28;20190;-78
2022/10/24 05:39:54;;;;;;;95.73;47.37;;;;;;;10.42;100.00;95389.25;5041361;28;20621;-77
2022/10/24 05:42:23;;;;;;;92.93;52.50;;;;;;;10.46;100.00;95390.41;5042736;28;20194;-78
2022/10/24 05:44:49;;;;;;;103.30;54.57;;;;;;;10.49;100.00;95393.44;5049715;28;20621;-78
2022/10/24 05:47:16;;;;;;;93.70;52.70;;;;;;;10.57;100.00;95405.41;5052480;28;20214;-77
2022/10/24 05:49:43;;;;;;;89.80;54.13;;;;;;;10.61;100.00;95406.63;5052477;28;20201;-77
2022/10/24 05:52:10;;;;;;;94.67;52.77;;;;;;;10.60;100.00;95402.44;5052826;28;20202;-78
2022/10/24 05:54:37;;;;;;;81.70;46.67;;;;;;;10.54;100.00;95398.00;5053278;28;20197;-77
2022/10/24 05:57:05;;;;;;;78.03;46.47;;;;;;;10.63;100.00;95407.22;5053030;28;20264;-78
2022/10/24 05:59:33;;;;;;;81.90;42.83;;;;;;;10.72;100.00;95416.44;5052808;28;20722;-78
2022/10/24 06:02:00;;;;;;;52.90;32.57;;;;;;;10.76;100.00;95421.03;5052575;28;20205;-78
2022/10/24 06:04:27;;;;;;;52.13;31.03;;;;;;;10.76;100.00;95418.41;5052343;28;20857;-79
2022/10/24 06:06:54;;;;;;;35.27;21.23;;;;;;;10.70;100.00;95419.25;5050879;28;20221;-77
2022/10/24 06:09:20;;;;;;;40.90;18.97;;;;;;;10.71;100.00;95420.03;5051976;28;20196;-76
2022/10/24 06:11:47;;;;;;;27.07;16.37;;;;;;;10.76;100.00;95420.25;5051944;28;20637;-78
2022/10/24 06:14:15;;;;;;;34.90;16.40;;;;;;;10.81;100.00;95420.44;5049225;28;20660;-78
2022/10/24 06:16:43;;;;;;;26.10;15.83;;;;;;;10.88;100.00;95418.63;5052147;28;20194;-77
2022/10/24 06:19:10;;;;;;;30.40;16.70;;;;;;;10.94;100.00;95411.84;5049127;28;20194;-78
2022/10/24 06:21:37;;;;;;;28.73;16.20;;;;;;;10.97;100.00;95417.41;5051510;28;20672;-77
2022/10/24 06:24:04;;;;;;;38.80;16.80;;;;;;;10.95;100.00;95408.22;5052244;28;20194;-78
2022/10/24 06:26:31;;;;;;;37.43;15.53;;;;;;;11.06;100.00;95431.03;5049640;28;20214;-77
2022/10/24 06:28:58;;;;;;;32.87;15.90;;;;;;;11.06;100.00;95438.81;5051946;28;20190;-77
2022/10/24 06:31:25;;;;;;;34.40;16.30;;;;;;;11.08;100.00;95429.81;5052088;28;20202;-78
2022/10/24 06:33:54;;;;;;;29.87;14.83;;;;;;;11.09;100.00;95430.63;5051504;28;20672;-78
2022/10/24 06:36:21;;;;;;;27.60;15.03;;;;;;;11.10;100.00;95434.84;5051514;28;20299;-77
2022/10/24 06:38:48;;;;;;;29.00;15.17;;;;;;;11.17;100.00;95446.81;5051232;28;21048;-77
2022/10/24 06:41:15;;;;;;;30.30;14.97;;;;;;;11.20;100.00;95433.41;5051160;28;20198;-77
2022/10/24 06:43:43;;;;;;;32.90;15.20;;;;;;;11.34;100.00;95444.63;5034600;28;20584;-77
2022/10/24 06:46:12;;;;;;;29.03;14.20;;;;;;;11.40;100.00;95459.41;5021357;28;20198;-78
2022/10/24 06:48:39;;;;;;;29.50;14.70;;;;;;;11.34;100.00;95423.81;5023894;28;20689;-78
2022/10/24 06:51:08;;;;;;;28.90;14.50;;;;;;;11.45;100.00;95451.81;5021371;28;20184;-78
2022/10/24 06:53:36;;;;;;;33.23;13.10;;;;;;;11.46;100.00;95450.78;5012561;28;20195;-78
2022/10/24 06:56:05;;;;;;;24.80;12.97;;;;;;;11.55;100.00;95459.16;5012152;28;20203;-79
2022/10/24 06:58:32;;;;;;;27.70;13.30;;;;;;;11.62;100.00;95454.75;5012308;28;20200;-78
2022/10/24 07:00:59;;;;;;;21.63;11.13;;;;;;;11.60;100.00;95447.16;5012941;28;20199;-78
2022/10/24 07:03:26;;;;;;;21.13;12.07;;;;;;;11.66;100.00;95448.16;5011563;28;20257;-78
2022/10/24 07:05:53;;;;;;;24.50;11.23;;;;;;;11.77;100.00;95450.16;5012150;28;20258;-78
2022/10/24 07:08:22;;;;;;;28.67;12.77;;;;;;;11.88;99.84;95449.50;5012121;28;20238;-78
2022/10/24 07:10:48;;;;;;;29.47;12.40;;;;;;;11.90;99.75;95447.50;5011723;28;20199;-78
2022/10/24 07:13:15;;;;;;;20.07;12.13;;;;;;;12.04;99.13;95449.03;5011876;28;20198;-78
2022/10/24 07:15:42;;;;;;;20.67;11.63;;;;;;;12.05;98.70;95440.22;5011994;28;20196;-78
2022/10/24 07:18:14;;;;;;;19.27;10.83;;;;;;;12.15;98.71;95452.81;5011928;28;20185;-77
2022/10/24 07:20:41;;;;;;;22.57;10.50;;;;;;;12.18;98.71;95444.59;5011853;28;20196;-77
2022/10/24 07:23:08;;;;;;;24.23;11.17;;;;;;;12.23;98.54;95445.56;5012248;28;20192;-77
2022/10/24 07:25:37;;;;;;;18.30;10.07;;;;;;;12.29;98.51;95446.53;5011781;28;20199;-78
2022/10/24 07:28:05;;;;;;;17.53;10.43;;;;;;;12.41;98.27;95439.63;5011517;28;20270;-78
2022/10/24 07:30:32;;;;;;;21.27;10.37;;;;;;;12.45;97.88;95439.00;5009136;28;20585;-78
2022/10/24 07:32:58;;;;;;;19.80;10.93;;;;;;;12.51;97.58;95432.97;5011893;28;20192;-78
2022/10/24 07:35:25;;;;;;;27.80;10.83;;;;;;;12.53;97.97;95436.16;5011712;28;20206;-77
2022/10/24 07:37:52;;;;;;;19.00;10.13;;;;;;;12.63;97.62;95434.88;5011440;28;20198;-77
2022/10/24 07:40:19;;;;;;;22.77;11.10;;;;;;;12.72;96.86;95444.06;5011451;28;20222;-78
2022/10/24 07:42:48;;;;;;;23.20;10.23;;;;;;;12.74;96.70;95449.84;5015214;28;20696;-76
2022/10/24 07:45:15;;;;;;;24.47;10.17;;;;;;;12.81;96.38;95446.19;5031359;28;20278;-77
2022/10/24 07:47:42;;;;;;;24.50;10.80;;;;;;;12.93;96.10;95449.69;5031770;28;20210;-78
2022/10/24 07:50:09;;;;;;;18.67;10.70;;;;;;;13.06;95.00;95446.19;5031458;28;20224;-77
2022/10/24 07:52:36;;;;;;;20.93;10.97;;;;;;;13.03;94.58;95442.22;5031112;28;20696;-77
2022/10/24 07:55:02;;;;;;;21.13;11.90;;;;;;;13.10;94.68;95436.16;5031227;28;20681;-77
2022/10/24 07:57:29;;;;;;;24.37;10.80;;;;;;;13.21;93.72;95438.88;5031651;28;20195;-78
2022/10/24 07:59:57;;;;;;;26.97;11.00;;;;;;;13.33;93.73;95431.91;5031335;28;20202;-78
2022/10/24 08:02:24;;;;;;;21.63;10.67;;;;;;;13.41;93.29;95438.69;5031148;28;20194;-78
2022/10/24 08:04:51;;;;;;;28.20;11.50;;;;;;;13.47;92.87;95432.63;5030014;28;20564;-78
2022/10/24 08:07:18;;;;;;;21.63;11.17;;;;;;;13.56;91.49;95426.09;5031362;28;20211;-77
2022/10/24 08:09:46;;;;;;;21.90;12.40;;;;;;;13.66;91.06;95434.22;5031512;28;20194;-78
2022/10/24 08:12:14;;;;;;;26.30;12.47;;;;;;;13.75;90.88;95419.84;5029015;28;20191;-78
2022/10/24 08:14:41;;;;;;;24.40;11.87;;;;;;;13.84;90.78;95425.56;5030599;28;20696;-78
2022/10/24 08:17:10;;;;;;;21.90;12.23;;;;;;;13.99;89.52;95420.78;5034914;28;20195;-78
2022/10/24 08:19:40;;;;;;;24.40;13.23;;;;;;;14.04;89.92;95428.75;5034925;28;20257;-78
2022/10/24 08:22:08;;;;;;;26.00;13.43;;;;;;;14.15;89.40;95428.00;5035445;28;20218;-77
2022/10/24 08:24:34;;;;;;;23.40;13.70;;;;;;;14.24;89.72;95424.06;5034842;28;20195;-77
2022/10/24 08:27:01;;;;;;;25.47;13.10;;;;;;;14.36;89.20;95422.34;5034481;28;20218;-77
2022/10/24 08:29:28;;;;;;;26.80;13.97;;;;;;;14.48;88.09;95419.75;5034586;28;20202;-78
2022/10/24 08:31:56;;;;;;;24.73;13.70;;;;;;;14.62;87.37;95419.34;5034426;28;20206;-77
2022/10/24 08:34:24;;;;;;;28.17;13.77;;;;;;;14.76;86.46;95412.09;5034227;28;20198;-78
2022/10/24 08:36:51;;;;;;;28.07;15.17;;;;;;;14.96;85.61;95411.78;5032401;28;20198;-78
2022/10/24 08:39:18;;;;;;;29.90;15.37;;;;;;;15.20;84.54;95426.50;5035088;28;20231;-77
2022/10/24 08:41:50;;;;;;;36.00;14.97;;;;;;;15.48;82.50;95417.97;5034435;28;20292;-77
2022/10/24 08:44:21;;;;;;;36.20;15.13;;;;;;;15.82;81.22;95415.31;5033966;28;20250;-78
2022/10/24 08:46:52;;;;;;;29.13;14.77;;;;;;;16.23;80.83;95416.91;5034706;28;20226;-77
2022/10/24 08:49:27;;;;;;;32.53;14.43;;;;;;;16.72;78.63;95409.41;5034430;28;20187;-77
2022/10/24 08:51:58;;;;;;;26.93;14.37;;;;;;;17.25;75.86;95401.84;5034718;28;20595;-77
2022/10/24 08:54:31;;;;;;;30.60;15.43;;;;;;;17.72;73.76;95406.75;5034626;28;20206;-77
2022/10/24 08:56:58;;;;;;;21.83;15.13;;;;;;;18.15;71.09;95402.25;5034491;28;20187;-77
2022/10/24 08:59:29;;;;;;;30.07;15.10;;;;;;;18.70;68.94;95403.88;5034149;28;20693;-77
2022/10/24 09:02:00;;;;;;;29.97;15.43;;;;;;;19.11;66.58;95395.28;5034178;28;20640;-77
2022/10/24 09:04:36;;;;;;;27.52;15.88;;;;;;;19.58;65.76;95402.47;5034724;28;20194;-78
2022/10/24 09:07:03;;;;;;;33.63;15.63;;;;;;;20.02;64.21;95409.03;5034725;28;20683;-78
2022/10/24 09:09:36;;;;;;;28.15;14.63;;;;;;;20.47;61.83;95415.53;5035385;28;20195;-78
2022/10/24 09:12:11;;;;;;;28.08;14.27;;;;;;;20.86;60.61;95406.91;5034329;28;20191;-77
2022/10/24 09:14:40;;;;;;;30.05;12.85;;;;;;;21.18;58.45;95392.66;5032402;28;20244;-77
2022/10/24 09:17:14;;;;;;;21.80;13.38;;;;;;;21.32;58.07;95402.44;5033764;28;20195;-76
2022/10/24 09:19:47;;;;;;;23.52;14.85;;;;;;;21.54;58.09;95403.97;5033629;28;20611;-77
2022/10/24 09:22:14;;;;;;;25.05;12.93;;;;;;;21.78;57.19;95400.50;5031972;28;20199;-76
2022/10/24 09:24:44;;;;;;;22.95;13.60;;;;;;;22.19;55.58;95406.47;5033412;28;20202;-77
2022/10/24 09:27:15;;;;;;;25.63;13.18;;;;;;;22.57;53.71;95392.47;5033308;28;20197;-77
2022/10/24 09:29:42;;;;;;;23.08;13.65;;;;;;;22.94;53.11;95399.94;5033672;28;20195;-77
2022/10/24 09:32:17;;;;;;;26.85;14.23;;;;;;;23.38;52.74;95396.38;5033098;28;20199;-77
2022/10/24 09:34:45;;;;;;;27.33;13.55;;;;;;;23.74;50.24;95384.41;5033704;28;20217;-77
2022/10/24 09:37:40;;;;;;;25.08;13.77;;;;;;;24.16;48.61;95403.06;5030840;28;20191;-76
2022/10/24 09:40:18;;;;;;;25.85;13.63;;;;;;;24.19;48.35;95407.78;4998147;28;20202;-76
2022/10/24 09:42:51;;;;;;;27.15;14.10;;;;;;;24.36;48.20;95388.72;5032951;28;20237;-76
2022/10/24 09:45:30;;;;;;;25.15;13.23;;;;;;;24.93;46.83;95392.19;5031562;28;20249;-77
2022/10/24 09:47:59;;;;;;;21.35;12.70;;;;;;;25.17;46.23;95383.00;5031537;28;20203;-77
2022/10/24 09:50:28;;;;;;;30.13;12.93;;;;;;;25.70;45.00;95393.31;5033606;28;20199;-77
2022/10/24 09:52:58;;;;;;;26.10;12.75;;;;;;;26.18;44.14;95393.72;5033770;28;20616;-77
2022/10/24 09:55:27;;;;;;;21.70;12.45;;;;;;;26.48;43.29;95388.56;5033010;28;20195;-77
2022/10/24 09:57:56;;;;;;;29.60;13.27;;;;;;;26.90;42.15;95392.72;5033103;28;20223;-78
2022/10/24 10:00:26;;;;;;;28.63;13.30;;;;;;;27.16;41.05;95390.22;5032930;28;20194;-78
2022/10/24 10:03:00;;;;;;;23.70;12.93;;;;;;;27.42;39.94;95393.88;5030361;28;20223;-76
2022/10/24 10:05:41;;;;;;;23.23;13.18;;;;;;;27.46;40.26;95394.88;5033185;28;20187;-77
2022/10/24 10:08:11;;;;;;;25.05;12.60;;;;;;;27.83;39.15;95393.63;5033371;28;20264;-78
2022/10/24 10:10:38;;;;;;;24.83;12.90;;;;;;;28.14;39.15;95389.03;5033465;28;20198;-77
2022/10/24 10:13:23;;;;;;;27.08;12.10;;;;;;;28.50;38.90;95396.06;5032821;28;20199;-77
2022/10/24 10:15:52;;;;;;;30.17;12.27;;;;;;;28.68;37.64;95384.31;5033138;28;20202;-78
2022/10/24 10:18:33;;;;;;;26.70;13.25;;;;;;;28.96;36.07;95385.56;5032944;28;20191;-77
2022/10/24 10:21:08;;;;;;;27.35;12.73;;;;;;;29.26;36.28;95386.53;5031018;28;20190;-78
2022/10/24 10:23:38;;;;;;;25.98;11.57;;;;;;;29.54;35.69;95384.25;5027773;28;20661;-76
2022/10/24 10:26:13;;;;;;;22.05;12.27;;;;;;;29.75;35.32;95385.13;5032359;28;20194;-77
2022/10/24 10:28:45;;;;;;;27.40;12.27;;;;;;;29.92;34.79;95385.09;5032660;28;20316;-76
2022/10/24 10:31:21;;;;;;;25.95;12.15;;;;;;;29.84;34.93;95375.19;5032412;28;20187;-78
2022/10/24 10:33:58;;;;;;;30.63;12.43;;;;;;;29.87;34.08;95369.16;5030498;28;20198;-77
2022/10/24 10:36:31;;;;;;;21.52;12.40;;;;;;;30.08;33.99;95370.03;5027482;28;20194;-77
2022/10/24 10:39:17;;;;;;;27.08;12.65;;;;;;;30.28;33.62;95371.19;5031523;28;20182;-76
2022/10/24 10:41:48;;;;;;;22.17;11.80;;;;;;;30.50;33.35;95362.09;5029810;28;20190;-77
2022/10/24 10:44:34;;;;;;;26.50;12.25;;;;;;;30.69;33.21;95357.03;5031697;28;20265;-77
2022/10/24 10:47:12;;;;;;;23.15;12.38;;;;;;;30.80;32.46;95358.22;5029435;28;20199;-76
2022/10/24 10:49:40;;;;;;;20.30;11.90;;;;;;;30.95;32.49;95357.66;5031576;28;20744;-76
2022/10/24 10:52:13;;;;;;;25.30;12.05;;;;;;;30.65;32.49;95356.13;5031755;28;20540;-77
2022/10/24 10:55:11;;;;;;;24.85;11.82;;;;;;;30.88;32.92;95350.09;5031477;28;20633;-77
2022/10/24 10:57:48;;;;;;;21.67;11.15;;;;;;;31.05;32.34;95348.41;5028854;28;20583;-76
2022/10/24 11:00:19;;;;;;;21.75;11.05;;;;;;;31.27;32.08;95350.72;5032309;28;20518;-77
2022/10/24 11:03:12;;;;;;;30.20;11.25;;;;;;;31.30;31.56;95342.78;5030013;28;20198;-77
2022/10/24 11:05:54;;;;;;;20.42;11.25;;;;;;;31.56;31.72;95342.53;5031358;28;20221;-77
2022/10/24 11:08:38;;;;;;;24.88;10.73;;;;;;;31.62;31.32;95338.50;5029012;28;20309;-77
2022/10/24 11:11:11;;;;;;;27.88;11.07;;;;;;;31.71;31.06;95336.50;5029377;28;20649;-77
2022/10/24 11:13:42;;;;;;;20.88;10.68;;;;;;;31.83;30.70;95335.72;5031370;28;20256;-77
2022/10/24 11:16:14;;;;;;;25.73;10.50;;;;;;;31.87;30.92;95328.53;5031271;28;20198;-78
2022/10/24 11:18:46;;;;;;;22.83;10.65;;;;;;;31.98;30.89;95324.28;5026201;28;20688;-78
2022/10/24 11:21:14;;;;;;;23.42;10.60;;;;;;;32.21;31.20;95335.41;5030861;28;20654;-78
2022/10/24 11:23:50;;;;;;;22.35;10.40;;;;;;;31.85;30.63;95326.19;5031263;28;20201;-77